Flight Track Log - Related Links

Times and Time Zones

All times are in EDT time to prevent confusion due to time zone crossing. See the N734M flight status page for this flight to view local times or setup timezone preferences in your user account.

Time Position Orientation Groundspeed Altitude Reporting Facility
EDT Latitude Longitude Course Direction KTS MPH feet Rate Location/Type
Thu 03:25:12 PM 46.9064 -96.7222 90° East 116 133 2,500  Level Minneapolis Center
Thu 03:26:14 PM 46.9119 -96.6725 81° East 119 137 3,000 484 Climbing Minneapolis Center
Thu 03:27:16 PM 46.9142 -96.6253 86° East 113 130 3,500 484 Climbing Minneapolis Center
Thu 03:28:18 PM 46.9172 -96.5794 84° East 109 125 4,000 435 Climbing Minneapolis Center
Thu 03:29:00 PM 46.9212 -96.5002 90° East  Level Estimated
Thu 03:29:20 PM 46.9183 -96.5283 88° East 118 136 4,400  Level Minneapolis Center
Thu 03:30:00 PM 46.9212 -96.4476 90° East  Level Estimated
Thu 03:30:22 PM 46.9186 -96.4769 90° East 122 140 4,900  Level Minneapolis Center
Thu 03:31:24 PM 46.9197 -96.4258 88° East 120 138 5,300 290 Climbing Minneapolis Center
Thu 03:32:26 PM 46.9192 -96.3706 91° East 130 150 5,500 96 Climbing Minneapolis Center
Thu 03:33:29 PM 46.9189 -96.3078 90° East 155 178 5,500  Level Minneapolis Center
Thu 03:34:31 PM 46.9186 -96.2394 90° East 161 185 5,500 -48 Level Minneapolis Center
Thu 03:35:33 PM 46.9181 -96.1686 91° East 166 191 5,400 -48 Descending Minneapolis Center
Thu 03:36:35 PM 46.9178 -96.0983 90° East 166 191 5,400  Level Minneapolis Center
Thu 03:37:37 PM 46.9186 -96.0272 89° East 167 192 5,400  Level Minneapolis Center
Thu 03:38:39 PM 46.9175 -95.9550 91° East 170 196 5,400  Level Minneapolis Center
Thu 03:39:41 PM 46.9175 -95.8842 90° East 168 193 5,400 96 Level Minneapolis Center
Thu 03:40:44 PM 46.9169 -95.8206 91° East 165 190 5,600 96 Climbing Minneapolis Center
Thu 03:41:46 PM 46.9172 -95.7500 90° East 167 192 5,600  Level Minneapolis Center
Thu 03:42:48 PM 46.9169 -95.6806 90° East 163 188 5,600  Level Minneapolis Center
Thu 03:43:50 PM 46.9158 -95.6100 91° East 165 190 5,600  Level Minneapolis Center
Thu 03:44:52 PM 46.9147 -95.5400 91° East 165 190 5,600  Level Minneapolis Center
Thu 03:45:54 PM 46.9150 -95.4706 90° East 164 189 5,600  Level Minneapolis Center
Thu 03:46:56 PM 46.9144 -95.4119 91° East 163 188 5,600  Level Minneapolis Center
Thu 03:47:58 PM 46.9133 -95.3469 91° East 161 185 5,600  Level Minneapolis Center
Thu 03:49:00 PM 46.9114 -95.2689 92° East 161 185 5,600  Level Minneapolis Center
Thu 03:50:02 PM 46.9117 -95.2008 90° East 164 189 5,600  Level Minneapolis Center
Thu 03:51:05 PM 46.9108 -95.1356 91° East 163 188 5,600 -48 Level Minneapolis Center
Thu 03:52:07 PM 46.9106 -95.0683 90° East 164 189 5,500  Descending Minneapolis Center
Thu 03:53:09 PM 46.9089 -95.0006 92° East 166 191 5,600 48 Climbing Minneapolis Center
Thu 03:54:11 PM 46.9089 -94.9350 90° East 165 190 5,600 -48 Level Minneapolis Center
Thu 03:55:13 PM 46.9075 -94.8550 91° East 164 189 5,500  Descending Minneapolis Center
Thu 03:56:15 PM 46.9064 -94.7892 91° East 164 189 5,600 48 Climbing Minneapolis Center
Thu 03:57:17 PM 46.9058 -94.7242 91° East 162 186 5,600  Level Minneapolis Center
Thu 03:58:19 PM 46.9050 -94.6572 91° East 163 188 5,600  Level Minneapolis Center
Thu 03:59:21 PM 46.9044 -94.5922 91° East 162 186 5,600  Level Minneapolis Center
Thu 04:00:24 PM 46.9019 -94.5122 93° East 163 188 5,600  Level Minneapolis Center
Thu 04:01:26 PM 46.9008 -94.4439 91° East 165 190 5,600  Level Minneapolis Center
Thu 04:02:28 PM 46.9000 -94.3769 91° East 166 191 5,600 -97 Level Minneapolis Center
Thu 04:03:30 PM 46.8986 -94.3100 92° East 166 191 5,400 -48 Descending Minneapolis Center
Thu 04:04:32 PM 46.8978 -94.2450 91° East 164 189 5,500 48 Climbing Minneapolis Center
Thu 04:05:34 PM 46.8967 -94.1792 91° East 163 188 5,500  Level Minneapolis Center
Thu 04:06:36 PM 46.8953 -94.0983 91° East 164 189 5,500  Level Minneapolis Center
Thu 04:07:38 PM 46.8939 -94.0319 92° East 165 190 5,500  Level Minneapolis Center
Thu 04:08:41 PM 46.8925 -93.9656 92° East 164 189 5,500  Level Minneapolis Center
Thu 04:09:43 PM 46.8914 -93.9000 91° East 164 189 5,500  Level Minneapolis Center
Thu 04:10:45 PM 46.8892 -93.8331 93° East 164 189 5,500  Level Minneapolis Center
Thu 04:11:47 PM 46.8875 -93.7522 92° East 165 190 5,500  Level Minneapolis Center
Thu 04:12:49 PM 46.8867 -93.6850 91° East 166 191 5,500  Level Minneapolis Center
Thu 04:13:51 PM 46.8847 -93.6181 92° East 166 191 5,500  Level Minneapolis Center
Thu 04:14:53 PM 46.8822 -93.5506 93° East 166 191 5,500  Level Minneapolis Center
Thu 04:15:55 PM 46.8814 -93.4822 91° East 167 192 5,500  Level Minneapolis Center
Thu 04:16:57 PM 46.8792 -93.4144 93° East 168 193 5,500  Level Minneapolis Center
Thu 04:17:59 PM 46.8775 -93.3336 92° East 168 193 5,500  Level Minneapolis Center
Thu 04:19:01 PM 46.8756 -93.2661 92° East 167 192 5,500  Level Minneapolis Center
Thu 04:20:03 PM 46.8739 -93.1994 92° East 166 191 5,500  Level Minneapolis Center
Thu 04:21:06 PM 46.8717 -93.1325 93° East 166 191 5,500  Level Minneapolis Center
Thu 04:22:08 PM 46.8697 -93.0656 92° East 166 191 5,500  Level Minneapolis Center
Thu 04:23:10 PM 46.8669 -92.9844 93° East 167 192 5,500  Level Minneapolis Center
Thu 04:24:12 PM 46.8658 -92.9117 91° East 166 191 5,500  Level Minneapolis Center
Thu 04:25:14 PM 46.8636 -92.8519 93° East 165 190 5,500  Level Minneapolis Center
Thu 04:26:16 PM 46.8614 -92.7847 93° East 165 190 5,500 -242 Level Minneapolis Center
Thu 04:27:18 PM 46.8592 -92.7136 93° East 169 194 5,000 -484 Descending Minneapolis Center
Thu 04:28:20 PM 46.8569 -92.6303 92° East 172 198 4,500 -484 Descending Minneapolis Center
Thu 04:29:22 PM 46.8547 -92.5642 93° East 169 194 4,000 -435 Descending Minneapolis Center
Thu 04:30:24 PM 46.8528 -92.5000 93° East 164 189 3,600 -387 Descending Minneapolis Center
Thu 04:31:26 PM 46.8511 -92.4369 92° East 161 185 3,200 -290 Descending Minneapolis Center
Thu 04:32:28 PM 46.8483 -92.3761 94° East 157 181 3,000 -48 Descending Minneapolis Center
Thu 04:33:31 PM 46.8483 -92.3242 90° East 145 167 3,100  Climbing Minneapolis Center
Thu 04:34:33 PM 46.8556 -92.2558 81° East 140 161 3,000 -290 Descending Minneapolis Center
Thu 04:35:35 PM 46.8622 -92.1917 81° East 147 169 2,500 -339 Descending Minneapolis Center
Thu 04:36:37 PM 46.8725 -92.1497 70° East 130 150 2,300 -290 Descending Minneapolis Center
Thu 04:37:39 PM 46.8564 -92.1689 219° Southwest 111 128 1,900 -387 Descending Minneapolis Center
Thu 04:39:00 PM 46.8421 -92.1936 230° Southwest  Level Estimated

Login

Don't have an account? Register now (free) for customized features, flight alerts, and more!